Time;durP1;ratioP1;P1;durP2;ratioP2;P2;SDS_P1;SDS_P2;PMS_P1;PMS_P2;Temp;Humidity;BMP_temperature;BMP_pressure;BME280_temperature;BME280_humidity;BME280_pressure;Samples;Min_cycle;Max_cycle;Signal;HPM_P1;HPM_P2
2021/09/29 00:02:17;;;;;;;7.68;4.25;;;;;;;13.39;76.49;97085.38;5095552;28;20043;-65
2021/09/29 00:04:43;;;;;;;7.50;4.57;;;;;;;13.40;76.72;97079.22;5095367;28;20021;-67
2021/09/29 00:07:09;;;;;;;9.27;4.85;;;;;;;13.46;76.66;97086.00;5095371;28;20023;-67
2021/09/29 00:09:35;;;;;;;8.55;4.43;;;;;;;13.49;77.15;97078.84;5095449;28;20355;-66
2021/09/29 00:12:01;;;;;;;7.68;4.30;;;;;;;13.52;76.82;97083.16;5095371;28;20017;-67
2021/09/29 00:14:27;;;;;;;7.90;4.28;;;;;;;13.50;76.54;97082.34;5095210;28;20103;-67
2021/09/29 00:16:53;;;;;;;8.57;4.65;;;;;;;13.55;76.54;97082.16;5095270;28;20429;-67
2021/09/29 00:19:18;;;;;;;10.55;4.45;;;;;;;13.49;76.75;97081.50;5095300;28;20111;-66
2021/09/29 00:21:44;;;;;;;7.88;4.53;;;;;;;13.51;76.51;97074.41;5095187;28;20027;-67
2021/09/29 00:24:10;;;;;;;12.15;4.38;;;;;;;13.52;76.89;97075.28;5095051;28;20374;-66
2021/09/29 00:26:36;;;;;;;9.80;4.63;;;;;;;13.55;76.86;97076.91;5094895;28;20024;-65
2021/09/29 00:29:01;;;;;;;9.45;4.28;;;;;;;13.57;76.86;97075.09;5094922;28;20039;-67
2021/09/29 00:31:34;;;;;;;12.13;4.68;;;;;;;13.57;77.26;97075.91;5094754;28;20021;-66
2021/09/29 00:34:12;;;;;;;10.30;4.43;;;;;;;13.51;77.48;97073.53;5095009;28;20047;-67
2021/09/29 00:36:45;;;;;;;5.47;4.38;;;;;;;13.49;77.07;97073.59;5094904;28;20040;-68
2021/09/29 00:39:12;;;;;;;5.70;4.40;;;;;;;13.52;76.71;97078.72;5094766;28;20032;-66
2021/09/29 00:41:39;;;;;;;5.88;4.10;;;;;;;13.55;76.85;97075.16;5094738;28;20426;-66
2021/09/29 00:44:05;;;;;;;7.05;4.40;;;;;;;13.60;77.08;97074.94;5094584;28;20028;-66
2021/09/29 00:46:31;;;;;;;6.43;4.45;;;;;;;13.60;76.94;97073.16;5094523;28;20578;-67
2021/09/29 00:48:57;;;;;;;5.65;4.32;;;;;;;13.63;76.91;97067.78;5094425;28;20110;-66
2021/09/29 00:51:23;;;;;;;9.07;4.20;;;;;;;13.62;76.49;97078.34;5094365;28;20020;-67
2021/09/29 00:53:51;;;;;;;10.80;3.95;;;;;;;13.58;76.55;97074.16;5094134;28;20048;-65
2021/09/29 00:56:17;;;;;;;8.40;4.63;;;;;;;13.56;76.46;97074.22;5094515;28;20020;-66
2021/09/29 00:58:43;;;;;;;6.78;4.88;;;;;;;13.59;76.48;97073.22;5094502;28;20056;-66
2021/09/29 01:01:09;;;;;;;5.60;4.13;;;;;;;13.60;76.57;97062.66;5094435;28;20044;-66
2021/09/29 01:03:35;;;;;;;5.70;4.47;;;;;;;13.62;76.57;97059.97;5094241;28;20034;-67
2021/09/29 01:06:05;;;;;;;6.68;4.18;;;;;;;13.61;76.85;97060.88;5094174;28;20028;-66
2021/09/29 01:08:39;;;;;;;5.80;3.93;;;;;;;13.59;76.99;97057.47;5094255;28;20432;-65
2021/09/29 01:11:28;;;;;;;7.07;4.35;;;;;;;13.56;77.16;97057.59;5094169;28;20047;-65
2021/09/29 01:14:25;;;;;;;8.43;4.80;;;;;;;13.52;77.29;97059.50;5094042;28;20032;-66
2021/09/29 01:16:53;;;;;;;7.82;4.47;;;;;;;13.56;76.65;97068.09;5059964;28;20111;-65
2021/09/29 01:19:46;;;;;;;8.85;4.32;;;;;;;13.48;77.45;97068.38;5094025;28;20020;-67
2021/09/29 01:22:41;;;;;;;7.40;4.70;;;;;;;13.55;77.26;97071.66;5093974;28;20024;-68
2021/09/29 01:25:16;;;;;;;4.47;4.07;;;;;;;13.55;77.27;97066.41;5071265;28;20121;-67
2021/09/29 01:27:44;;;;;;;10.45;4.70;;;;;;;13.50;77.38;97066.59;5093883;28;20021;-66
2021/09/29 01:30:10;;;;;;;8.45;4.30;;;;;;;13.52;77.27;97070.84;5093790;28;20035;-65
2021/09/29 01:32:37;;;;;;;8.52;4.55;;;;;;;13.54;76.95;97068.16;5093824;28;20020;-66
2021/09/29 01:35:03;;;;;;;9.95;4.78;;;;;;;13.48;77.13;97063.13;5093641;28;20481;-66
2021/09/29 01:37:29;;;;;;;5.45;4.60;;;;;;;13.43;77.02;97062.47;5093623;28;20061;-66
2021/09/29 01:39:54;;;;;;;8.05;4.25;;;;;;;13.48;77.18;97061.34;5093577;28;20020;-68
2021/09/29 01:42:20;;;;;;;6.10;4.50;;;;;;;13.48;77.01;97064.00;5093600;28;20048;-66
2021/09/29 01:44:46;;;;;;;9.68;4.28;;;;;;;13.49;77.60;97056.97;5092243;28;20058;-65
2021/09/29 01:47:11;;;;;;;6.53;4.20;;;;;;;13.49;77.72;97060.47;5093493;28;20024;-65
2021/09/29 01:49:44;;;;;;;5.85;4.22;;;;;;;13.51;77.69;97066.53;5093694;28;20024;-66
2021/09/29 01:52:10;;;;;;;5.63;4.03;;;;;;;13.50;77.69;97062.19;5093490;28;20028;-67
2021/09/29 01:54:49;;;;;;;7.57;4.22;;;;;;;13.52;77.29;97062.13;5093229;28;20131;-66
2021/09/29 01:57:15;;;;;;;13.68;4.03;;;;;;;13.48;77.06;97055.22;5093467;28;20027;-67
2021/09/29 01:59:42;;;;;;;12.45;4.97;;;;;;;13.54;77.50;97060.28;5093357;28;20038;-66
2021/09/29 02:02:08;;;;;;;22.58;5.22;;;;;;;13.52;77.26;97056.88;5093327;28;20055;-66
2021/09/29 02:04:34;;;;;;;7.30;4.65;;;;;;;13.50;77.26;97070.06;5092577;28;20027;-66
2021/09/29 02:07:00;;;;;;;12.90;4.45;;;;;;;13.48;77.21;97068.38;5093213;28;20032;-66
2021/09/29 02:09:27;;;;;;;6.95;4.93;;;;;;;13.49;77.15;97065.72;5093318;28;20020;-67
2021/09/29 02:11:55;;;;;;;6.85;5.22;;;;;;;13.52;77.58;97067.38;5093180;28;20034;-66
2021/09/29 02:14:23;;;;;;;6.47;4.57;;;;;;;13.49;77.31;97065.72;5093179;28;20076;-65
2021/09/29 02:16:51;;;;;;;5.80;4.43;;;;;;;13.49;77.53;97070.09;5093343;28;20433;-66
2021/09/29 02:19:17;;;;;;;5.45;4.90;;;;;;;13.51;77.96;97069.16;5092040;28;20048;-65
2021/09/29 02:21:45;;;;;;;10.18;5.63;;;;;;;13.55;77.79;97067.25;5093142;28;20410;-65
2021/09/29 02:24:11;;;;;;;6.78;5.05;;;;;;;13.56;77.38;97068.97;5093137;28;20024;-69
2021/09/29 02:26:37;;;;;;;11.15;5.10;;;;;;;13.53;77.12;97061.19;5092949;28;20016;-67
2021/09/29 02:29:04;;;;;;;7.97;4.57;;;;;;;13.52;77.51;97064.75;5093007;28;20107;-65
2021/09/29 02:31:31;;;;;;;7.40;4.90;;;;;;;13.55;77.56;97067.25;5093005;28;20043;-67
2021/09/29 02:33:56;;;;;;;5.30;3.92;;;;;;;13.51;77.72;97065.66;5093072;28;20085;-66
2021/09/29 02:36:22;;;;;;;5.03;4.07;;;;;;;13.48;77.17;97061.34;5093038;28;20028;-67
2021/09/29 02:38:51;;;;;;;6.93;4.95;;;;;;;13.44;76.66;97065.03;5092973;28;20089;-65
2021/09/29 02:41:16;;;;;;;7.32;4.38;;;;;;;13.48;76.46;97071.88;5092924;28;20051;-67
2021/09/29 02:43:42;;;;;;;6.50;4.47;;;;;;;13.56;77.40;97073.34;5092963;28;20461;-66
2021/09/29 02:46:07;;;;;;;7.18;4.30;;;;;;;13.52;76.83;97067.38;5092818;28;20486;-66
2021/09/29 02:48:33;;;;;;;5.25;4.45;;;;;;;13.49;76.56;97064.84;5092836;28;20024;-68
2021/09/29 02:50:59;;;;;;;6.80;4.72;;;;;;;13.46;76.81;97063.19;5092903;28;20016;-67
2021/09/29 02:53:31;;;;;;;8.18;4.55;;;;;;;13.42;76.65;97060.78;5092634;28;20040;-66
2021/09/29 02:55:57;;;;;;;6.20;4.38;;;;;;;13.32;75.91;97071.66;5092835;28;20036;-67
2021/09/29 02:58:24;;;;;;;6.43;4.80;;;;;;;13.20;76.66;97059.88;5092884;28;20023;-66
2021/09/29 03:00:51;;;;;;;5.65;4.80;;;;;;;13.23;77.30;97066.75;5092814;28;20059;-67
2021/09/29 03:03:18;;;;;;;9.43;5.38;;;;;;;13.22;78.13;97059.81;5092798;28;20028;-68
2021/09/29 03:05:44;;;;;;;7.50;5.10;;;;;;;13.18;78.40;97066.09;5092637;28;20462;-67
2021/09/29 03:08:10;;;;;;;5.63;4.95;;;;;;;13.20;78.63;97062.50;5092754;28;20067;-68
2021/09/29 03:10:38;;;;;;;6.60;5.20;;;;;;;13.29;78.46;97068.28;5092699;28;20016;-68
2021/09/29 03:13:04;;;;;;;5.72;4.72;;;;;;;13.33;77.88;97070.72;5092617;28;20097;-66
2021/09/29 03:15:30;;;;;;;5.82;4.28;;;;;;;13.33;77.73;97070.72;5094152;28;20385;-67
2021/09/29 03:17:56;;;;;;;8.75;4.93;;;;;;;13.35;77.51;97075.91;5096556;28;20103;-67
2021/09/29 03:20:23;;;;;;;8.38;4.53;;;;;;;13.37;77.56;97076.72;5096407;28;20555;-67
2021/09/29 03:22:49;;;;;;;5.32;4.50;;;;;;;13.39;76.90;97067.84;5096257;28;20016;-66
2021/09/29 03:25:16;;;;;;;9.27;5.05;;;;;;;13.40;77.08;97071.34;5096073;28;20020;-65
2021/09/29 03:27:42;;;;;;;8.70;4.85;;;;;;;13.41;76.74;97067.78;5096174;28;20469;-66
2021/09/29 03:30:08;;;;;;;9.60;5.07;;;;;;;13.34;76.94;97072.44;5096097;28;20021;-66
2021/09/29 03:32:33;;;;;;;7.13;5.00;;;;;;;13.37;76.85;97071.47;5096103;28;20028;-65
2021/09/29 03:34:59;;;;;;;9.48;5.53;;;;;;;13.37;77.24;97069.69;5095975;28;20505;-68
2021/09/29 03:37:24;;;;;;;7.15;4.20;;;;;;;13.38;77.06;97068.78;5095933;28;20528;-67
2021/09/29 03:39:50;;;;;;;6.90;4.80;;;;;;;13.39;77.48;97072.25;5095851;28;20055;-67
2021/09/29 03:42:16;;;;;;;5.68;5.05;;;;;;;13.37;77.51;97066.22;5095810;28;20082;-65
2021/09/29 03:44:41;;;;;;;6.47;4.88;;;;;;;13.30;77.41;97073.47;5095780;28;20387;-67
2021/09/29 03:47:07;;;;;;;7.05;5.15;;;;;;;13.17;77.45;97072.25;5095782;28;20023;-65
2021/09/29 03:49:32;;;;;;;5.57;4.50;;;;;;;13.18;77.26;97072.19;5095666;28;20488;-68
2021/09/29 03:51:58;;;;;;;10.45;5.90;;;;;;;13.17;77.90;97073.13;5095689;28;20024;-66
2021/09/29 03:54:23;;;;;;;8.20;5.60;;;;;;;13.21;78.07;97068.59;5095484;28;20110;-67
2021/09/29 03:56:49;;;;;;;10.15;5.13;;;;;;;13.26;77.85;97071.91;5095652;28;20101;-66
2021/09/29 03:59:14;;;;;;;5.97;4.85;;;;;;;13.26;77.98;97074.53;5095962;28;20071;-66
2021/09/29 04:01:42;;;;;;;9.98;4.85;;;;;;;13.26;78.06;97074.53;5095498;28;20024;-65
2021/09/29 04:04:08;;;;;;;8.05;4.55;;;;;;;13.28;77.70;97077.97;5095517;28;20508;-68
2021/09/29 04:06:33;;;;;;;5.85;4.93;;;;;;;13.27;78.07;97071.84;5095321;28;20052;-66
2021/09/29 04:09:00;;;;;;;5.72;4.93;;;;;;;13.31;78.22;97066.47;5095440;28;20020;-68
2021/09/29 04:11:26;;;;;;;6.10;4.55;;;;;;;13.29;77.74;97068.28;5095293;28;20027;-65
2021/09/29 04:13:51;;;;;;;5.88;4.65;;;;;;;13.31;77.20;97074.34;5095294;28;20088;-65
2021/09/29 04:16:17;;;;;;;9.13;4.65;;;;;;;13.31;77.37;97080.47;5095350;28;20024;-68
2021/09/29 04:18:42;;;;;;;5.68;4.55;;;;;;;13.33;77.60;97080.41;5095117;28;20038;-66
2021/09/29 04:21:10;;;;;;;7.10;4.88;;;;;;;13.35;77.68;97079.41;5095209;28;20020;-65
2021/09/29 04:23:39;;;;;;;7.05;4.57;;;;;;;13.35;77.06;97083.81;5095070;28;20032;-67
2021/09/29 04:26:05;;;;;;;6.75;4.63;;;;;;;13.32;76.90;97089.19;5094812;28;20063;-66
2021/09/29 04:28:31;;;;;;;7.85;5.03;;;;;;;13.35;77.43;97089.06;5094539;28;20038;-66
2021/09/29 04:30:57;;;;;;;7.63;4.78;;;;;;;13.35;77.88;97091.69;5094947;28;20020;-67
2021/09/29 04:33:23;;;;;;;6.63;4.72;;;;;;;13.33;77.54;97098.78;5094870;28;20069;-66
2021/09/29 04:35:48;;;;;;;7.75;5.10;;;;;;;13.30;77.79;97102.38;5094741;28;20420;-66
2021/09/29 04:38:14;;;;;;;5.68;4.45;;;;;;;13.26;77.63;97103.41;5094722;28;20020;-67
2021/09/29 04:40:40;;;;;;;6.78;4.80;;;;;;;13.26;77.53;97106.06;5093401;28;20023;-68
2021/09/29 04:43:06;;;;;;;12.18;5.50;;;;;;;13.25;77.52;97102.56;5094694;28;20027;-67
2021/09/29 04:45:32;;;;;;;6.93;5.22;;;;;;;13.14;77.66;97105.63;5094686;28;20021;-65
2021/09/29 04:48:00;;;;;;;6.47;4.90;;;;;;;13.18;77.65;97103.72;5094679;28;20374;-66
2021/09/29 04:50:26;;;;;;;8.07;4.38;;;;;;;13.22;77.36;97109.72;5094599;28;20093;-65
2021/09/29 04:52:51;;;;;;;5.63;4.38;;;;;;;13.19;78.06;97099.34;5094222;28;20024;-65
2021/09/29 04:55:17;;;;;;;5.45;4.68;;;;;;;13.11;77.70;97113.63;5094575;28;20447;-66
2021/09/29 04:57:43;;;;;;;5.95;4.88;;;;;;;13.15;78.30;97106.47;5093092;28;20440;-66
2021/09/29 05:00:09;;;;;;;5.07;4.38;;;;;;;13.20;78.46;97112.41;5094339;28;20078;-67
2021/09/29 05:02:37;;;;;;;7.70;4.78;;;;;;;13.26;77.82;97116.56;5094430;28;20020;-65
2021/09/29 05:05:03;;;;;;;9.55;5.55;;;;;;;13.26;78.04;97113.94;5094287;28;20020;-66
2021/09/29 05:07:29;;;;;;;5.25;4.75;;;;;;;13.27;78.43;97119.13;5094247;28;20081;-65
2021/09/29 05:09:55;;;;;;;5.18;4.68;;;;;;;13.34;78.72;97124.97;5094180;28;20525;-65
2021/09/29 05:12:29;;;;;;;5.75;5.10;;;;;;;13.36;78.32;97124.91;5094183;28;20027;-67
2021/09/29 05:14:56;;;;;;;8.98;4.80;;;;;;;13.37;78.60;97122.22;5094030;28;20030;-67
2021/09/29 05:17:22;;;;;;;6.72;5.55;;;;;;;13.39;78.73;97128.28;5094020;28;20069;-66
2021/09/29 05:19:48;;;;;;;8.80;6.35;;;;;;;13.40;78.39;97131.78;5093996;28;20513;-65
2021/09/29 05:22:14;;;;;;;9.27;5.30;;;;;;;13.42;78.74;97131.72;5094084;28;20052;-66
2021/09/29 05:24:40;;;;;;;8.57;6.50;;;;;;;13.46;78.64;97130.69;5093992;28;20103;-66
2021/09/29 05:27:06;;;;;;;7.47;6.25;;;;;;;13.46;78.16;97135.94;5093936;28;20423;-68
2021/09/29 05:29:32;;;;;;;9.63;7.18;;;;;;;13.43;77.96;97139.53;5093844;28;20073;-67
2021/09/29 05:31:58;;;;;;;10.98;6.47;;;;;;;13.45;78.00;97139.50;5093875;28;20024;-66
2021/09/29 05:34:24;;;;;;;11.13;6.70;;;;;;;13.44;78.04;97141.25;5093799;28;20056;-65
2021/09/29 05:36:53;;;;;;;9.00;6.60;;;;;;;13.46;77.83;97142.03;5093704;28;20058;-66
2021/09/29 05:39:18;;;;;;;11.10;6.32;;;;;;;13.44;77.81;97141.25;5092699;28;20028;-65
2021/09/29 05:41:44;;;;;;;8.57;6.07;;;;;;;13.43;77.55;97150.06;5093801;28;20350;-65
2021/09/29 05:44:10;;;;;;;9.35;6.55;;;;;;;13.44;77.53;97146.50;5093703;28;20426;-65
2021/09/29 05:46:35;;;;;;;10.77;6.35;;;;;;;13.44;77.87;97151.75;5093498;28;20043;-67
2021/09/29 05:49:01;;;;;;;9.27;6.95;;;;;;;13.49;77.99;97151.56;5093573;28;20154;-68
2021/09/29 05:51:28;;;;;;;8.25;6.38;;;;;;;13.49;78.01;97157.69;5093485;28;20047;-66
2021/09/29 05:53:53;;;;;;;10.35;6.65;;;;;;;13.51;77.78;97155.88;5093242;28;20072;-68
2021/09/29 05:56:19;;;;;;;8.27;6.68;;;;;;;13.55;77.36;97154.00;5093574;28;20055;-65
2021/09/29 05:58:45;;;;;;;10.38;6.65;;;;;;;13.55;76.64;97154.00;5093424;28;20417;-67
2021/09/29 06:01:10;;;;;;;9.60;7.75;;;;;;;13.52;76.87;97156.75;5093372;28;20024;-67
2021/09/29 06:03:36;;;;;;;7.32;6.55;;;;;;;13.56;77.39;97162.72;5093410;28;20466;-66
2021/09/29 06:06:01;;;;;;;8.90;6.85;;;;;;;13.57;77.55;97161.81;5093406;28;20027;-66
2021/09/29 06:08:27;;;;;;;8.13;6.85;;;;;;;13.61;77.79;97160.78;5093433;28;20100;-66
2021/09/29 06:10:53;;;;;;;10.70;6.93;;;;;;;13.64;77.57;97169.38;5092002;28;20478;-67
2021/09/29 06:13:19;;;;;;;10.38;7.07;;;;;;;13.66;77.85;97166.69;5093176;28;20035;-68
2021/09/29 06:15:46;;;;;;;9.13;7.10;;;;;;;13.68;78.08;97162.22;5093145;28;20378;-68
2021/09/29 06:18:13;;;;;;;8.82;6.28;;;;;;;13.72;77.07;97168.19;5093150;28;20048;-67
2021/09/29 06:20:43;;;;;;;13.90;6.72;;;;;;;13.76;77.26;97169.81;5093159;28;20073;-65
2021/09/29 06:23:09;;;;;;;8.10;6.75;;;;;;;13.82;77.32;97169.53;5093191;28;20107;-65
2021/09/29 06:25:35;;;;;;;11.05;7.55;;;;;;;13.84;77.81;97165.09;5093042;28;20116;-67
2021/09/29 06:28:01;;;;;;;8.55;6.35;;;;;;;13.87;77.43;97167.59;5093118;28;20024;-65
2021/09/29 06:30:26;;;;;;;8.18;6.40;;;;;;;13.88;77.14;97177.19;5093022;28;20020;-64
2021/09/29 06:32:52;;;;;;;10.48;7.40;;;;;;;13.94;77.64;97170.81;5093004;28;20016;-67
2021/09/29 06:35:18;;;;;;;9.43;6.82;;;;;;;13.93;77.60;97181.41;5093008;28;20032;-68
2021/09/29 06:37:44;;;;;;;10.02;7.03;;;;;;;13.95;77.67;97180.41;5092993;28;20073;-66
2021/09/29 06:40:12;;;;;;;8.90;7.07;;;;;;;13.96;77.36;97184.75;5092969;28;20073;-68
2021/09/29 06:42:38;;;;;;;9.00;7.53;;;;;;;13.97;77.47;97180.38;5092963;28;20017;-66
2021/09/29 06:45:06;;;;;;;7.78;6.95;;;;;;;14.02;77.22;97181.00;5092872;28;20028;-65
2021/09/29 06:47:32;;;;;;;9.48;7.57;;;;;;;14.05;76.82;97190.56;5092879;28;20063;-68
2021/09/29 06:49:58;;;;;;;12.95;8.13;;;;;;;14.09;77.27;97190.34;5093576;28;20426;-67
2021/09/29 06:52:23;;;;;;;7.85;6.97;;;;;;;14.13;77.56;97185.81;5096820;28;20046;-67
2021/09/29 06:54:49;;;;;;;11.65;7.65;;;;;;;14.13;77.24;97191.09;5096660;28;20509;-65
2021/09/29 06:57:15;;;;;;;8.13;6.55;;;;;;;14.15;76.60;97184.84;5096787;28;20080;-64
2021/09/29 06:59:40;;;;;;;8.68;7.75;;;;;;;14.15;77.00;97189.25;5096707;28;20035;-65
2021/09/29 07:02:06;;;;;;;11.93;8.98;;;;;;;14.19;76.82;97190.84;5096705;28;20027;-66
2021/09/29 07:04:32;;;;;;;7.85;6.72;;;;;;;14.21;76.51;97194.25;5096600;28;20024;-65
2021/09/29 07:06:58;;;;;;;13.60;6.43;;;;;;;14.23;76.88;97192.41;5096480;28;20032;-64
2021/09/29 07:09:23;;;;;;;11.40;7.32;;;;;;;14.28;76.19;97194.84;5096500;28;20081;-65
2021/09/29 07:11:49;;;;;;;10.07;7.53;;;;;;;14.32;76.50;97196.44;5096514;28;20440;-66
2021/09/29 07:14:15;;;;;;;12.70;7.15;;;;;;;14.33;76.56;97198.13;5096496;28;20028;-65
2021/09/29 07:16:41;;;;;;;13.52;7.03;;;;;;;14.38;76.47;97200.56;5096348;28;20093;-68
2021/09/29 07:19:06;;;;;;;9.65;6.47;;;;;;;14.39;75.91;97204.94;5096335;28;20095;-65
2021/09/29 07:21:32;;;;;;;13.05;6.43;;;;;;;14.41;75.63;97208.34;5096294;28;20046;-67
2021/09/29 07:23:59;;;;;;;13.02;7.45;;;;;;;14.42;76.35;97207.41;5096206;28;20016;-67
2021/09/29 07:26:25;;;;;;;8.50;7.20;;;;;;;14.35;76.56;97205.97;5096112;28;20031;-66
2021/09/29 07:28:51;;;;;;;8.85;7.15;;;;;;;14.32;76.21;97212.22;5096349;28;20032;-66
2021/09/29 07:31:17;;;;;;;13.57;6.65;;;;;;;14.36;76.16;97216.41;5096244;28;20474;-66
2021/09/29 07:33:43;;;;;;;22.95;7.38;;;;;;;14.41;76.08;97216.22;5094805;28;20053;-68
2021/09/29 07:36:08;;;;;;;8.55;7.53;;;;;;;14.46;76.56;97219.53;5096016;28;20099;-65
2021/09/29 07:38:35;;;;;;;15.13;6.50;;;;;;;14.47;76.37;97217.72;5096042;28;20027;-68
2021/09/29 07:41:00;;;;;;;7.18;5.40;;;;;;;14.40;74.67;97219.78;5095878;28;20048;-66
2021/09/29 07:43:27;;;;;;;6.22;5.63;;;;;;;14.23;74.89;97226.63;5096007;28;20437;-67
2021/09/29 07:45:52;;;;;;;7.00;5.60;;;;;;;14.23;74.99;97220.50;5095817;28;20161;-65
2021/09/29 07:48:18;;;;;;;6.53;5.72;;;;;;;14.23;75.71;97223.13;5095783;28;20115;-68
2021/09/29 07:50:44;;;;;;;8.63;5.88;;;;;;;14.15;74.75;97219.03;5095897;28;20027;-67
2021/09/29 07:53:13;;;;;;;9.30;5.82;;;;;;;14.14;75.62;97217.34;5095428;28;20044;-67
2021/09/29 07:55:40;;;;;;;8.70;5.95;;;;;;;14.13;75.39;97220.03;5095729;28;20081;-68
2021/09/29 07:58:05;;;;;;;6.97;5.72;;;;;;;14.02;75.28;97225.72;5095595;28;20017;-65
2021/09/29 08:00:31;;;;;;;5.90;5.25;;;;;;;13.95;75.42;97227.75;5095624;28;20032;-65
2021/09/29 08:02:57;;;;;;;8.85;5.40;;;;;;;13.84;75.83;97228.19;5094517;28;20107;-67
2021/09/29 08:05:22;;;;;;;6.65;5.75;;;;;;;13.79;76.38;97234.56;5095485;28;20062;-66
2021/09/29 08:07:50;;;;;;;9.63;6.82;;;;;;;13.76;76.84;97233.75;5095358;28;20039;-65
2021/09/29 08:10:16;;;;;;;8.30;6.13;;;;;;;13.71;76.57;97227.84;5095252;28;20081;-68
2021/09/29 08:12:41;;;;;;;11.85;5.78;;;;;;;13.56;76.95;97234.56;5095281;28;20031;-66
2021/09/29 08:15:12;;;;;;;10.18;6.35;;;;;;;13.42;77.62;97235.03;5095307;28;20016;-66
2021/09/29 08:17:40;;;;;;;8.85;7.35;;;;;;;13.36;78.26;97230.88;5095322;28;20043;-65
2021/09/29 08:20:06;;;;;;;9.48;6.57;;;;;;;13.27;78.35;97229.47;5095195;28;20453;-67
2021/09/29 08:22:32;;;;;;;7.50;6.70;;;;;;;13.22;78.61;97238.44;5095122;28;20043;-64
2021/09/29 08:30:16;;;;;;;10.98;7.75;;;;;;;13.20;78.90;97240.25;5094916;28;20063;-67
2021/09/29 08:45:53;;;;;;;9.55;6.88;;;;;;;13.24;77.19;97253.22;5094596;28;20458;-66
2021/09/29 08:48:31;;;;;;;10.40;7.07;;;;;;;13.25;77.71;97246.22;5094654;28;20042;-65
2021/09/29 08:56:38;;;;;;;10.50;7.60;;;;;;;13.39;77.32;97248.31;5094412;28;20059;-66
2021/09/29 09:15:53;;;;;;;9.77;6.85;;;;;;;14.07;75.88;97244.81;5094477;28;20089;-65
2021/09/29 09:18:19;;;;;;;9.13;6.72;;;;;;;14.14;75.74;97241.00;5094097;28;20028;-66
2021/09/29 09:21:28;;;;;;;7.95;6.05;;;;;;;14.19;75.39;97245.22;5093976;28;20024;-65
2021/09/29 09:23:40;;;;;;;12.93;6.22;;;;;;;14.23;73.61;97250.28;5088163;28;20032;-68
2021/09/29 09:26:18;;;;;;;8.82;6.95;;;;;;;14.26;74.23;97238.78;5093742;28;20024;-66
2021/09/29 09:28:46;;;;;;;6.85;6.15;;;;;;;14.42;73.38;97249.50;5093932;28;20031;-68
2021/09/29 09:31:20;;;;;;;6.38;5.55;;;;;;;14.48;74.03;97248.41;5093812;28;20390;-65
2021/09/29 09:34:06;;;;;;;11.15;4.93;;;;;;;14.56;71.15;97248.94;5093823;28;20110;-67
2021/09/29 09:36:41;;;;;;;7.10;4.97;;;;;;;14.56;71.13;97245.44;5093951;28;20028;-65
2021/09/29 09:39:09;;;;;;;9.30;5.25;;;;;;;14.62;71.81;97251.31;5093727;28;20496;-67
2021/09/29 09:41:35;;;;;;;7.18;5.53;;;;;;;14.73;72.90;97252.63;5093757;28;20039;-66
2021/09/29 09:44:03;;;;;;;9.15;4.72;;;;;;;14.78;69.91;97248.88;5093692;28;20028;-65
2021/09/29 09:46:30;;;;;;;6.20;4.85;;;;;;;14.78;69.68;97251.53;5093506;28;20112;-68
2021/09/29 09:48:59;;;;;;;7.60;4.15;;;;;;;14.84;70.15;97257.47;5093461;28;20016;-67
2021/09/29 09:51:25;;;;;;;8.18;5.80;;;;;;;14.84;71.74;97249.56;5093538;28;20024;-65
2021/09/29 09:53:54;;;;;;;12.45;5.43;;;;;;;14.89;70.51;97244.94;5093156;28;20455;-66
2021/09/29 09:56:23;;;;;;;5.70;5.00;;;;;;;14.86;69.00;97255.59;5093455;28;20032;-68
2021/09/29 09:58:54;;;;;;;11.10;5.15;;;;;;;14.85;70.51;97252.13;5093360;28;20032;-67
2021/09/29 10:01:20;;;;;;;;;;;;;;;14.76;67.75;97256.00;5093897;28;20028;-68
2021/09/29 10:03:47;;;;;;;9.50;4.35;;;;;;;14.53;69.97;97262.22;5093420;28;19912;-66
2021/09/29 10:06:13;;;;;;;5.60;3.78;;;;;;;14.47;69.01;97263.34;5093167;28;20035;-67
2021/09/29 10:08:42;;;;;;;6.85;4.13;;;;;;;14.40;70.32;97257.50;5093223;28;20078;-65
2021/09/29 10:11:49;;;;;;;5.80;4.22;;;;;;;14.37;70.61;97260.25;5093272;28;20085;-67
2021/09/29 10:14:20;;;;;;;7.22;4.40;;;;;;;14.30;70.71;97252.69;5090955;28;20475;-66
2021/09/29 10:28:11;;;;;;;6.93;4.47;;;;;;;14.72;70.32;97251.75;5097495;28;20059;-65
2021/09/29 10:30:58;;;;;;;5.32;4.43;;;;;;;14.71;70.00;97246.56;5097375;28;20114;-68
2021/09/29 10:33:26;;;;;;;6.72;5.15;;;;;;;14.86;72.24;97248.56;5097341;28;20028;-66
2021/09/29 10:41:50;;;;;;;6.78;4.47;;;;;;;15.09;67.75;97251.09;5097220;28;20389;-67
2021/09/29 10:44:31;;;;;;;4.88;3.97;;;;;;;15.14;67.33;97249.94;5097092;28;20474;-66
2021/09/29 11:34:08;;;;;;;6.10;4.90;;;;;;;15.20;68.25;97233.00;5053902;28;20076;-65
2021/09/29 11:36:56;;;;;;;7.78;4.85;;;;;;;15.18;69.60;97224.31;5092717;28;20478;-65
2021/09/29 12:14:52;;;;;;;8.32;4.90;;;;;;;15.51;67.14;97220.19;5095545;28;20070;-66
2021/09/29 12:17:32;;;;;;;7.68;5.15;;;;;;;15.49;67.05;97229.94;5095437;28;20031;-66
2021/09/29 12:20:00;;;;;;;10.38;6.93;;;;;;;15.44;67.87;97226.69;5095243;28;20061;-66
2021/09/29 12:22:29;;;;;;;7.32;5.25;;;;;;;15.33;68.87;97221.91;5095175;28;20107;-65
2021/09/29 12:25:08;;;;;;;8.88;5.78;;;;;;;15.34;69.29;97228.88;5095165;28;20032;-67
2021/09/29 12:27:41;;;;;;;7.72;5.05;;;;;;;15.27;68.85;97225.69;5095184;28;20039;-67
2021/09/29 12:30:20;;;;;;;9.50;5.07;;;;;;;15.24;69.02;97233.72;5095184;28;20032;-67
2021/09/29 12:35:51;;;;;;;8.57;5.70;;;;;;;15.07;69.81;97223.94;5095045;28;20071;-66
2021/09/29 12:38:18;;;;;;;13.43;6.65;;;;;;;15.05;70.64;97218.75;5094980;28;20043;-66
2021/09/29 12:40:45;;;;;;;9.70;6.03;;;;;;;15.05;70.85;97212.63;5094839;28;20036;-67
2021/09/29 12:43:14;;;;;;;9.32;5.63;;;;;;;15.10;70.59;97213.25;5094841;28;20477;-66
2021/09/29 12:45:43;;;;;;;9.55;6.68;;;;;;;15.11;70.85;97213.19;5094594;28;20028;-66
2021/09/29 12:48:11;;;;;;;12.18;6.50;;;;;;;15.12;70.68;97214.06;5094121;28;20020;-65
2021/09/29 12:56:33;;;;;;;8.98;6.60;;;;;;;15.19;69.43;97204.94;5094925;28;20390;-67
2021/09/29 12:58:39;;;;;;;7.97;4.68;;;;;;;15.25;69.54;97206.44;5088861;28;20402;-66
2021/09/29 13:01:05;;;;;;;8.82;6.22;;;;;;;15.27;69.51;97204.59;5094423;28;20028;-66
2021/09/29 13:03:30;;;;;;;8.73;5.18;;;;;;;15.30;68.22;97207.09;5094335;28;20024;-66
2021/09/29 13:05:58;;;;;;;12.65;6.13;;;;;;;15.28;67.74;97209.78;5094305;28;20024;-67
2021/09/29 13:08:24;;;;;;;7.82;6.38;;;;;;;15.30;68.37;97212.38;5094341;28;20385;-67
2021/09/29 13:10:50;;;;;;;11.38;6.18;;;;;;;15.25;68.59;97211.72;5094307;28;20107;-67
2021/09/29 13:13:17;;;;;;;11.68;6.30;;;;;;;15.31;68.63;97206.16;5094281;28;20125;-66
2021/09/29 13:15:51;;;;;;;11.68;5.57;;;;;;;15.37;67.30;97205.88;5094092;28;20032;-66
2021/09/29 13:21:12;;;;;;;8.93;5.35;;;;;;;15.33;66.65;97201.69;5094128;28;20024;-66
2021/09/29 13:23:43;;;;;;;8.20;5.78;;;;;;;15.34;66.54;97206.00;5094088;28;20109;-66
2021/09/29 13:36:53;;;;;;;10.80;5.88;;;;;;;15.57;66.86;97200.59;5093953;28;20039;-66
2021/09/29 13:39:19;;;;;;;7.07;5.25;;;;;;;15.61;67.14;97195.09;5093724;28;20032;-65
2021/09/29 13:41:47;;;;;;;11.60;5.35;;;;;;;15.63;66.12;97197.66;5093717;28;20054;-66
2021/09/29 13:44:14;;;;;;;11.00;6.35;;;;;;;15.49;67.45;97195.66;5093654;28;20111;-67
2021/09/29 13:46:40;;;;;;;12.25;5.88;;;;;;;15.45;68.27;97199.38;5093512;28;20024;-66
2021/09/29 13:49:08;;;;;;;7.35;5.25;;;;;;;15.31;66.87;97203.53;5093613;28;20024;-66
2021/09/29 13:51:38;;;;;;;9.10;6.10;;;;;;;15.33;68.31;97204.31;5093497;28;20428;-66
2021/09/29 13:54:10;;;;;;;7.50;5.82;;;;;;;15.41;68.38;97199.53;5093327;28;20056;-66
2021/09/29 13:56:54;;;;;;;7.18;5.28;;;;;;;15.26;67.81;97202.91;5093490;28;20542;-66
2021/09/29 13:59:28;;;;;;;7.10;5.25;;;;;;;15.16;68.46;97205.09;5092870;28;20028;-66
2021/09/29 14:28:46;;;;;;;7.22;4.60;;;;;;;15.02;68.82;97208.38;5093180;28;20038;-66
2021/09/29 14:31:19;;;;;;;9.73;4.88;;;;;;;15.07;68.87;97209.00;5093252;28;20475;-66
2021/09/29 14:33:48;;;;;;;5.75;5.13;;;;;;;15.09;68.01;97212.44;5093040;28;20492;-66
2021/09/29 14:36:15;;;;;;;9.02;5.43;;;;;;;15.03;68.51;97210.91;5092979;28;20066;-66
2021/09/29 14:38:43;;;;;;;11.35;6.03;;;;;;;15.06;68.78;97215.19;5093026;28;20020;-66
2021/09/29 14:41:08;;;;;;;10.20;5.80;;;;;;;15.10;70.49;97213.25;5093054;28;20052;-66
2021/09/29 14:43:34;;;;;;;6.75;4.85;;;;;;;15.13;69.13;97216.63;5093031;28;20437;-66
2021/09/29 14:46:00;;;;;;;6.63;5.22;;;;;;;15.11;67.91;97217.63;5092891;28;20032;-66